CST,Max TemperatureF,Mean TemperatureF,Min TemperatureF,Max Dew PointF,MeanDew PointF,Min DewpointF,Max Humidity, Mean Humidity, Min Humidity, Max Sea Level PressureIn, Mean Sea Level PressureIn, Min Sea Level PressureIn, Max VisibilityMiles, Mean VisibilityMiles, Min VisibilityMiles, Max Wind SpeedMPH, Mean Wind SpeedMPH, Max Gust SpeedMPH,PrecipitationIn, CloudCover, Events, WindDirDegrees
2012-12-1,75,62,48,54,48,43,89,71,36,30.30,30.26,30.23,10,8,2,8,2,,0.01,1,,158
2012-12-2,75,62,48,57,50,44,86,72,43,30.34,30.27,30.23,10,9,4,6,2,,0.01,1,,141
2012-12-3,79,65,51,57,51,46,88,71,38,30.29,30.24,30.19,10,8,2,8,1,16,0.00,2,,160
2012-12-4,79,64,48,61,50,45,90,81,39,30.29,30.23,30.18,10,4,0,8,1,,0.01,4,Fog-Rain,140
2012-12-5,75,63,51,56,53,48,94,78,46,30.20,30.14,30.06,10,6,0,4,0,,0.01,1,Fog-Rain,162
2012-12-6,77,65,53,56,52,48,86,68,39,30.08,30.03,29.98,10,10,8,12,3,,0.00,1,,120
2012-12-7,66,62,57,58,56,53,88,81,73,30.04,30.00,29.95,9,6,2,8,5,,0.01,6,,134
2012-12-8,75,66,57,63,58,54,90,84,57,30.04,30.00,29.94,10,4,0,7,3,,0.04,5,Fog-Rain,138
2012-12-9,77,70,62,63,60,57,94,81,52,30.10,30.03,29.95,10,5,0,8,2,,0.01,6,Fog,199
2012-12-10,75,64,53,67,61,46,88,83,69,29.96,29.86,29.76,10,7,1,23,4,38,0.27,7,Rain,292
2012-12-11,53,48,43,46,40,35,83,73,61,30.15,30.03,29.91,10,9,5,13,8,17,0.00,6,Rain,17
2012-12-12,54,46,39,36,35,34,82,66,47,30.23,30.16,30.09,10,9,7,8,5,,0.00,3,Rain,26
2012-12-13,64,52,39,42,39,34,86,70,42,30.32,30.27,30.23,10,8,4,8,4,,0.00,0,,62
2012-12-14,64,50,37,46,42,33,87,76,47,30.33,30.26,30.17,10,7,4,14,5,,0.00,3,,123
2012-12-15,69,58,48,56,50,43,83,72,54,30.19,30.11,30.04,10,8,6,8,3,,0.00,4,Rain,142
2012-12-16,73,66,60,65,60,55,94,83,68,30.03,29.95,29.86,10,5,0,26,5,43,0.17,7,Fog-Rain,179
2012-12-17,66,63,60,63,58,54,94,85,78,29.87,29.82,29.75,10,5,0,12,4,25,1.18,8,Fog-Rain-Thunderstorm,218
2012-12-18,68,56,42,57,45,31,88,69,26,30.04,29.95,29.84,10,8,5,9,5,,0.01,2,,315
2012-12-19,73,56,39,54,45,35,88,67,29,30.10,30.03,29.99,10,8,1,8,2,,0.00,1,,161
2012-12-20,75,60,46,68,52,25,87,69,34,30.13,29.90,29.78,10,7,1,28,10,43,0.31,5,Rain,274
2012-12-21,54,46,37,24,17,7,52,37,16,30.31,30.22,30.12,10,10,10,22,11,33,0.00,0,,330
2012-12-22,62,46,30,29,21,13,79,47,16,30.38,30.30,30.24,10,10,10,12,6,,0.00,0,,347
2012-12-23,57,45,33,41,35,28,82,67,37,30.26,30.17,30.05,10,10,9,5,1,,0.00,1,,160
2012-12-24,75,64,52,63,57,44,94,80,53,30.03,29.92,29.86,10,6,0,18,5,29,0.96,6,Fog-Rain-Thunderstorm,248
2012-12-25,71,66,61,64,62,55,94,83,73,29.92,29.74,29.59,10,5,0,21,7,34,1.73,7,Fog-Rain-Thunderstorm,180
2012-12-26,60,50,39,51,33,28,72,61,52,30.11,29.90,29.63,10,10,10,24,14,33,0.00,6,,322
2012-12-27,53,45,37,35,30,28,82,66,45,30.17,30.11,30.08,10,10,6,12,6,,0.00,4,,7
2012-12-28,55,45,35,52,42,31,94,74,47,30.09,29.90,29.77,10,6,1,12,4,18,0.47,5,Rain,145
2012-12-29,55,47,39,52,39,25,88,71,52,30.34,30.03,29.77,10,9,2,22,11,30,0.01,8,Rain,339
2012-12-30,54,42,30,29,25,23,79,58,30,30.48,30.40,30.35,10,9,6,10,5,,0.00,0,,21
2012-12-31,61,47,33,49,41,27,82,65,53,30.37,30.26,30.13,10,10,7,6,1,,0.00,5,,137